createdAt,value
2022-12-28T00:00:26.985Z,85.48
2022-12-28T00:01:31.124Z,85.62
2022-12-28T00:02:32.743Z,85.10
2022-12-28T00:03:35.340Z,84.84
2022-12-28T00:04:36.970Z,83.93
2022-12-28T00:05:39.497Z,84.32
2022-12-28T00:06:42.863Z,83.89
2022-12-28T00:07:45.568Z,83.43
2022-12-28T00:08:47.699Z,83.84
2022-12-28T00:09:50.738Z,83.44
2022-12-28T00:11:07.844Z,83.15
2022-12-28T00:12:13.064Z,83.79
2022-12-28T00:13:14.700Z,83.79
2022-12-28T00:14:17.280Z,83.24
2022-12-28T00:15:18.834Z,83.26
2022-12-28T00:16:25.582Z,83.29
2022-12-28T00:17:28.472Z,82.25
2022-12-28T00:18:33.494Z,81.90
2022-12-28T00:19:36.297Z,82.31
2022-12-28T00:20:37.875Z,82.17
2022-12-28T00:21:40.634Z,81.65
2022-12-28T00:22:43.527Z,81.95
2022-12-28T00:23:52.328Z,82.14
2022-12-28T00:24:53.909Z,82.48
2022-12-28T00:26:06.322Z,82.24
2022-12-28T00:27:10.871Z,81.71
2022-12-28T00:28:13.589Z,81.67
2022-12-28T00:29:15.495Z,80.76
2022-12-28T00:30:18.020Z,81.52
2022-12-28T00:31:19.742Z,82.05
2022-12-28T00:32:22.361Z,82.74
2022-12-28T00:33:23.891Z,82.11
2022-12-28T00:34:26.399Z,81.66
2022-12-28T00:35:27.911Z,81.59
2022-12-28T00:37:10.861Z,82.02
2022-12-28T00:37:55.587Z,81.96
2022-12-28T00:38:57.174Z,82.59
2022-12-28T00:40:00.238Z,82.52
2022-12-28T00:41:01.796Z,82.40
2022-12-28T00:42:07.097Z,82.08
2022-12-28T00:43:08.614Z,82.45
2022-12-28T00:44:11.303Z,81.93
2022-12-28T00:45:12.885Z,81.29
2022-12-28T00:46:15.434Z,81.42
2022-12-28T00:47:17.043Z,81.76
2022-12-28T00:48:19.755Z,81.83
2022-12-28T00:49:23.920Z,81.40
2022-12-28T00:50:26.660Z,81.17
2022-12-28T00:51:28.574Z,80.92
2022-12-28T00:52:31.291Z,81.23
2022-12-28T00:53:34.403Z,80.86
2022-12-28T00:54:36.956Z,81.48
2022-12-28T00:55:39.292Z,80.86
2022-12-28T00:56:42.799Z,80.32
2022-12-28T00:57:44.338Z,80.53
2022-12-28T00:58:47.201Z,80.69
2022-12-28T00:59:48.743Z,80.27
2022-12-28T01:00:51.631Z,80.23
2022-12-28T01:01:53.230Z,80.18
2022-12-28T01:02:55.889Z,79.58
2022-12-28T01:03:58.388Z,79.42
2022-12-28T01:05:00.936Z,79.34
2022-12-28T01:06:05.337Z,79.19
2022-12-28T01:07:07.820Z,79.44
2022-12-28T01:08:09.401Z,79.57
2022-12-28T01:09:13.262Z,79.56
2022-12-28T01:10:15.025Z,79.05
2022-12-28T01:11:20.731Z,79.94
2022-12-28T01:12:22.445Z,80.93
2022-12-28T01:13:24.928Z,80.60
2022-12-28T01:14:26.491Z,80.47
2022-12-28T01:15:29.011Z,81.81
2022-12-28T01:16:32.390Z,82.18
2022-12-28T01:17:34.915Z,81.47
2022-12-28T01:18:36.386Z,80.68
2022-12-28T01:19:38.879Z,80.23
2022-12-28T01:20:40.791Z,80.05
2022-12-28T01:21:43.323Z,79.34
2022-12-28T01:22:44.815Z,78.78
2022-12-28T01:23:48.758Z,78.91
2022-12-28T01:24:52.718Z,79.00
2022-12-28T01:25:54.900Z,79.12
2022-12-28T01:27:00.096Z,80.99
2022-12-28T01:28:01.611Z,81.87
2022-12-28T01:29:04.981Z,81.78
2022-12-28T01:30:07.762Z,81.44
2022-12-28T01:31:11.979Z,81.33
2022-12-28T01:32:13.536Z,80.36
2022-12-28T01:33:18.619Z,80.12
2022-12-28T01:34:21.091Z,80.53
2022-12-28T01:35:22.578Z,79.98
2022-12-28T01:36:26.930Z,80.29
2022-12-28T01:37:28.401Z,79.87
2022-12-28T01:38:37.182Z,80.15
2022-12-28T01:39:38.796Z,80.81
2022-12-28T01:40:44.424Z,80.74
2022-12-28T01:41:46.324Z,82.59
2022-12-28T01:42:48.808Z,83.10
2022-12-28T01:44:24.057Z,83.53
2022-12-28T01:45:26.732Z,84.55
2022-12-28T01:46:36.104Z,85.63
2022-12-28T01:47:39.133Z,84.74
2022-12-28T01:48:48.324Z,84.52
2022-12-28T01:49:58.184Z,84.69
2022-12-28T01:50:59.820Z,84.89
2022-12-28T01:52:07.161Z,85.38
2022-12-28T01:53:09.973Z,84.95
2022-12-28T01:54:12.255Z,84.76
2022-12-28T01:55:18.338Z,84.44
2022-12-28T01:56:22.688Z,85.14
2022-12-28T01:57:30.206Z,85.12
2022-12-28T01:58:34.117Z,85.46
2022-12-28T01:59:41.688Z,85.78
2022-12-28T02:00:43.252Z,86.22
2022-12-28T02:01:45.833Z,86.54
2022-12-28T02:02:52.903Z,86.11
2022-12-28T02:03:55.730Z,86.37
2022-12-28T02:04:58.813Z,86.15
2022-12-28T02:06:04.293Z,86.33
2022-12-28T02:07:05.827Z,86.53
2022-12-28T02:08:12.759Z,85.80
2022-12-28T02:09:19.497Z,85.38
2022-12-28T02:10:40.558Z,85.25
2022-12-28T02:11:47.710Z,85.17
2022-12-28T02:12:50.380Z,84.35
2022-12-28T02:13:55.620Z,84.19
2022-12-28T02:14:57.213Z,83.82
2022-12-28T02:15:59.696Z,84.12
2022-12-28T02:17:01.366Z,84.31
2022-12-28T02:18:04.420Z,84.74
2022-12-28T02:19:09.651Z,85.65
2022-12-28T02:20:12.283Z,85.79
2022-12-28T02:21:24.405Z,84.45
2022-12-28T02:22:47.795Z,83.87
2022-12-28T02:24:27.876Z,84.26
2022-12-28T02:26:04.228Z,84.49
2022-12-28T02:27:17.477Z,85.16
2022-12-28T02:29:01.922Z,85.67
2022-12-28T02:30:06.377Z,86.41
2022-12-28T02:31:12.949Z,86.28
2022-12-28T02:32:33.226Z,86.52
2022-12-28T02:33:41.982Z,86.68
2022-12-28T02:34:53.941Z,85.78
2022-12-28T02:35:59.403Z,86.13
2022-12-28T02:37:08.228Z,85.87
2022-12-28T02:38:16.160Z,86.43
2022-12-28T02:39:23.757Z,86.70
2022-12-28T02:40:30.483Z,87.17
2022-12-28T02:41:35.549Z,87.02
2022-12-28T02:42:41.925Z,86.61
2022-12-28T02:43:44.800Z,86.60
2022-12-28T02:45:06.565Z,87.18
2022-12-28T02:46:30.120Z,86.84
2022-12-28T02:47:50.122Z,88.17
2022-12-28T02:49:09.987Z,87.97
2022-12-28T02:50:16.177Z,87.39
2022-12-28T02:51:31.518Z,87.88
2022-12-28T02:52:58.695Z,88.25
2022-12-28T02:54:39.963Z,87.51
2022-12-28T02:56:12.014Z,86.79
2022-12-28T02:57:26.192Z,86.72
2022-12-28T02:59:01.398Z,87.47
2022-12-28T03:00:09.934Z,87.12
2022-12-28T03:01:22.012Z,86.15
2022-12-28T03:02:40.929Z,85.97
2022-12-28T03:03:54.965Z,84.93
2022-12-28T03:05:11.615Z,85.13
2022-12-28T03:06:39.519Z,84.45
2022-12-28T03:08:08.962Z,84.22
2022-12-28T03:09:17.281Z,84.32
2022-12-28T03:10:24.926Z,83.70
2022-12-28T03:11:36.170Z,83.63
2022-12-28T03:12:44.424Z,83.85
2022-12-28T03:13:53.604Z,84.17
2022-12-28T03:15:03.997Z,85.30
2022-12-28T03:16:11.087Z,84.85
2022-12-28T03:17:33.082Z,84.58
2022-12-28T03:18:55.786Z,84.75
2022-12-28T03:20:19.052Z,84.15
2022-12-28T03:21:40.619Z,84.46
2022-12-28T03:23:03.227Z,84.62
2022-12-28T03:24:26.007Z,83.64
2022-12-28T03:25:54.245Z,84.07
2022-12-28T03:27:17.214Z,83.70
2022-12-28T03:28:41.704Z,84.49
2022-12-28T03:30:07.460Z,85.30
2022-12-28T03:31:17.405Z,84.43
2022-12-28T03:32:19.766Z,84.77
2022-12-28T03:33:22.541Z,85.14
2022-12-28T03:34:24.761Z,84.94
2022-12-28T03:35:38.619Z,84.80
2022-12-28T03:36:48.047Z,85.18
2022-12-28T03:37:57.801Z,84.25
2022-12-28T03:39:03.554Z,85.76
2022-12-28T03:40:13.320Z,85.61
2022-12-28T03:41:22.676Z,85.62
2022-12-28T03:42:47.284Z,85.96
2022-12-28T03:43:57.829Z,85.63
2022-12-28T03:45:06.287Z,85.19
2022-12-28T03:46:16.274Z,85.49
2022-12-28T03:47:20.061Z,84.95
2022-12-28T03:48:23.767Z,85.44
2022-12-28T03:49:27.720Z,84.98
2022-12-28T03:50:30.896Z,84.69
2022-12-28T03:51:33.466Z,84.13
2022-12-28T03:52:35.965Z,84.65
2022-12-28T03:53:41.067Z,84.49
2022-12-28T03:54:43.944Z,84.84
2022-12-28T03:55:45.581Z,85.05
2022-12-28T03:56:49.460Z,85.29
2022-12-28T03:57:51.043Z,85.08
2022-12-28T03:58:53.746Z,86.04
2022-12-28T03:59:55.889Z,85.65
2022-12-28T04:00:58.418Z,85.66
2022-12-28T04:02:01.584Z,84.76
2022-12-28T04:03:04.402Z,85.07
2022-12-28T04:04:05.933Z,84.48
2022-12-28T04:05:09.425Z,84.86
2022-12-28T04:06:13.198Z,84.88
2022-12-28T04:07:15.716Z,85.30
2022-12-28T04:08:17.265Z,84.90
2022-12-28T04:09:19.946Z,84.60
2022-12-28T04:10:21.641Z,84.27
2022-12-28T04:11:24.152Z,84.73
2022-12-28T04:12:25.737Z,84.47
2022-12-28T04:13:31.970Z,84.72
2022-12-28T04:14:33.717Z,85.28
2022-12-28T04:15:36.234Z,85.21
2022-12-28T04:16:37.798Z,85.60
2022-12-28T04:17:41.859Z,85.01
2022-12-28T04:18:44.234Z,85.58
2022-12-28T04:19:48.024Z,85.21
2022-12-28T04:20:49.698Z,84.85
2022-12-28T04:21:52.217Z,84.65
2022-12-28T04:22:53.769Z,85.09
2022-12-28T04:23:56.207Z,85.29
2022-12-28T04:24:57.793Z,85.10
2022-12-28T04:26:02.391Z,85.50
2022-12-28T04:27:04.177Z,85.37
2022-12-28T04:28:06.785Z,85.97
2022-12-28T04:29:08.428Z,86.06
2022-12-28T04:30:11.925Z,85.53
2022-12-28T04:31:14.722Z,85.98
2022-12-28T04:32:17.411Z,85.42
2022-12-28T04:33:20.275Z,85.44
2022-12-28T04:34:22.791Z,84.70
2022-12-28T04:35:24.371Z,84.63
2022-12-28T04:36:27.280Z,84.82
2022-12-28T04:37:28.921Z,84.60
2022-12-28T04:38:31.387Z,84.22
2022-12-28T04:39:54.756Z,84.14
2022-12-28T04:40:55.454Z,84.23
2022-12-28T04:41:57.066Z,83.66
2022-12-28T04:42:59.893Z,84.29
2022-12-28T04:44:01.421Z,84.39
2022-12-28T04:45:04.284Z,84.17
2022-12-28T04:46:07.756Z,84.59
2022-12-28T04:47:10.364Z,85.00
2022-12-28T04:48:11.961Z,85.01
2022-12-28T04:50:17.760Z,84.83
2022-12-28T04:51:22.121Z,84.82
2022-12-28T04:52:23.624Z,84.63
2022-12-28T04:53:26.176Z,84.82
2022-12-28T04:54:27.695Z,85.21
2022-12-28T04:55:32.194Z,85.10
2022-12-28T04:56:35.063Z,85.64
2022-12-28T04:57:37.572Z,85.58
2022-12-28T04:58:39.661Z,85.62
2022-12-28T04:59:42.265Z,85.29
2022-12-28T05:00:43.822Z,85.31
2022-12-28T05:01:47.949Z,85.15
2022-12-28T05:02:50.707Z,85.53
2022-12-28T05:03:57.408Z,85.38
2022-12-28T05:05:02.189Z,85.70
2022-12-28T05:06:07.612Z,85.19
2022-12-28T05:07:09.276Z,84.72
2022-12-28T05:08:11.847Z,84.68
2022-12-28T05:09:13.400Z,84.36
2022-12-28T05:10:15.986Z,83.96
2022-12-28T05:11:20.377Z,83.63
2022-12-28T05:12:23.392Z,83.62
2022-12-28T05:13:24.900Z,83.71
2022-12-28T05:14:32.307Z,83.91
2022-12-28T05:15:38.056Z,83.51
2022-12-28T05:16:40.582Z,83.32
2022-12-28T05:17:42.235Z,83.88
2022-12-28T05:18:45.373Z,84.45
2022-12-28T05:19:46.953Z,84.72
2022-12-28T05:20:51.776Z,84.63
2022-12-28T05:21:53.543Z,84.06
2022-12-28T05:22:56.018Z,83.84
2022-12-28T05:23:58.099Z,84.28
2022-12-28T05:25:00.596Z,84.01
2022-12-28T05:26:02.573Z,84.40
2022-12-28T05:27:05.413Z,84.36
2022-12-28T05:28:07.462Z,84.29
2022-12-28T05:29:10.234Z,84.67
2022-12-28T05:30:12.159Z,83.72
2022-12-28T05:31:17.085Z,83.99
2022-12-28T05:32:19.813Z,84.18
2022-12-28T05:33:22.323Z,84.04
2022-12-28T05:34:24.065Z,84.27
2022-12-28T05:35:26.509Z,84.03
2022-12-28T05:36:29.530Z,84.31
2022-12-28T05:37:33.299Z,84.00
2022-12-28T05:38:38.186Z,82.90
2022-12-28T05:39:40.647Z,83.05
2022-12-28T05:40:42.159Z,83.66
2022-12-28T05:41:45.075Z,83.49
2022-12-28T05:42:51.527Z,83.82
2022-12-28T05:43:54.610Z,83.66
2022-12-28T05:44:56.087Z,83.31
2022-12-28T05:46:01.930Z,83.69
2022-12-28T05:47:03.545Z,83.15
2022-12-28T05:48:06.215Z,83.55
2022-12-28T05:49:08.470Z,83.52
2022-12-28T05:50:11.000Z,83.55
2022-12-28T05:51:14.563Z,83.60
2022-12-28T05:52:18.642Z,83.84
2022-12-28T05:53:20.139Z,83.66
2022-12-28T05:54:22.628Z,83.83
2022-12-28T05:55:24.156Z,84.53
2022-12-28T05:56:29.220Z,84.31
2022-12-28T05:57:30.784Z,83.80
2022-12-28T05:58:33.352Z,84.21
2022-12-28T05:59:34.944Z,84.12
2022-12-28T06:00:37.348Z,83.75
2022-12-28T06:01:41.116Z,83.63
2022-12-28T06:02:43.804Z,83.33
2022-12-28T06:03:46.462Z,82.97
2022-12-28T06:04:48.917Z,83.10
2022-12-28T06:05:50.523Z,83.39
2022-12-28T06:06:54.263Z,83.95
2022-12-28T06:07:57.156Z,84.35
2022-12-28T06:09:00.516Z,84.08
2022-12-28T06:10:02.014Z,84.25
2022-12-28T06:11:06.784Z,83.52
2022-12-28T06:12:08.607Z,82.90
2022-12-28T06:13:11.092Z,83.93
2022-12-28T06:14:12.820Z,84.70
2022-12-28T06:15:15.356Z,84.62
2022-12-28T06:16:19.316Z,84.47
2022-12-28T06:17:21.807Z,84.33
2022-12-28T06:18:23.911Z,83.88
2022-12-28T06:19:26.457Z,84.07
2022-12-28T06:20:28.053Z,84.80
2022-12-28T06:21:34.490Z,84.87
2022-12-28T06:22:36.222Z,84.48
2022-12-28T06:23:56.133Z,84.35
2022-12-28T06:24:58.769Z,84.52
2022-12-28T06:26:01.320Z,84.64
2022-12-28T06:27:03.814Z,84.92
2022-12-28T06:28:05.339Z,85.10
2022-12-28T06:29:08.491Z,84.58
2022-12-28T06:30:11.689Z,84.76
2022-12-28T06:31:16.178Z,85.16
2022-12-28T06:32:17.888Z,85.99
2022-12-28T06:33:20.336Z,86.18
2022-12-28T06:34:22.956Z,86.41
2022-12-28T06:35:24.764Z,86.22
2022-12-28T06:36:31.345Z,85.59
2022-12-28T06:37:33.122Z,85.42
2022-12-28T06:38:35.650Z,85.88
2022-12-28T06:39:39.611Z,86.18
2022-12-28T06:41:11.810Z,86.37
2022-12-28T06:42:03.520Z,86.86
2022-12-28T06:43:05.021Z,87.44
2022-12-28T06:44:08.330Z,87.31
2022-12-28T06:45:10.143Z,86.88
2022-12-28T06:46:13.535Z,86.69
2022-12-28T06:47:16.009Z,86.76
2022-12-28T06:48:17.493Z,87.03
2022-12-28T06:49:20.076Z,86.56
2022-12-28T06:50:24.607Z,86.01
2022-12-28T06:51:30.127Z,85.53
2022-12-28T06:52:32.908Z,85.59
2022-12-28T06:53:37.298Z,85.74
2022-12-28T06:54:44.768Z,86.40
2022-12-28T06:55:52.593Z,87.07
2022-12-28T06:56:55.279Z,87.24
2022-12-28T06:57:57.048Z,87.00
2022-12-28T06:59:03.320Z,87.48
2022-12-28T07:00:07.060Z,88.11
2022-12-28T07:01:11.077Z,88.10
2022-12-28T07:02:12.822Z,88.80
2022-12-28T07:03:15.659Z,88.57
2022-12-28T07:04:18.465Z,88.52
2022-12-28T07:05:19.997Z,89.03
2022-12-28T07:06:24.684Z,88.96
2022-12-28T07:07:26.178Z,88.96
2022-12-28T07:08:29.822Z,88.39
2022-12-28T07:09:31.528Z,88.05
2022-12-28T07:10:36.753Z,88.00
2022-12-28T07:11:38.728Z,87.86
2022-12-28T07:12:41.346Z,87.92
2022-12-28T07:13:43.335Z,88.07
2022-12-28T07:14:46.030Z,87.80
2022-12-28T07:15:47.511Z,88.56
2022-12-28T07:16:50.048Z,88.58
2022-12-28T07:17:51.664Z,88.27
2022-12-28T07:18:54.202Z,88.38
2022-12-28T07:19:55.793Z,88.68
2022-12-28T07:21:02.880Z,88.39
2022-12-28T07:22:07.247Z,88.22
2022-12-28T07:23:09.778Z,87.83
2022-12-28T07:24:12.406Z,88.04
2022-12-28T07:25:14.171Z,87.67
2022-12-28T07:26:21.377Z,87.21
2022-12-28T07:27:22.972Z,86.86
2022-12-28T07:28:26.306Z,86.56
2022-12-28T07:29:29.222Z,87.01
2022-12-28T07:30:30.986Z,87.32
2022-12-28T07:31:41.932Z,87.56
2022-12-28T07:32:45.552Z,87.47
2022-12-28T07:33:48.693Z,88.56
2022-12-28T07:34:50.221Z,87.66
2022-12-28T07:35:52.754Z,87.41
2022-12-28T07:36:54.462Z,87.17
2022-12-28T07:37:59.704Z,87.31
2022-12-28T07:39:02.945Z,87.18
2022-12-28T07:40:05.472Z,86.08
2022-12-28T07:41:11.283Z,86.96
2022-12-28T07:42:15.252Z,87.38
2022-12-28T07:43:18.560Z,86.52
2022-12-28T07:44:21.027Z,85.97
2022-12-28T07:45:22.747Z,85.70
2022-12-28T07:46:27.103Z,85.30
2022-12-28T07:47:29.123Z,85.31
2022-12-28T07:48:32.807Z,85.43
2022-12-28T07:49:35.409Z,84.57
2022-12-28T07:50:38.164Z,83.64
2022-12-28T07:51:40.763Z,83.50
2022-12-28T07:52:43.552Z,84.08
2022-12-28T07:53:47.501Z,84.24
2022-12-28T07:54:49.973Z,84.62
2022-12-28T07:55:55.868Z,84.26
2022-12-28T07:56:58.907Z,84.78
2022-12-28T07:58:02.129Z,85.55
2022-12-28T07:59:06.426Z,85.46
2022-12-28T08:00:09.714Z,85.42
2022-12-28T08:01:14.400Z,84.50
2022-12-28T08:02:18.399Z,84.94
2022-12-28T08:03:21.318Z,84.30
2022-12-28T08:04:22.863Z,84.42
2022-12-28T08:05:25.488Z,84.40
2022-12-28T08:06:29.000Z,84.17
2022-12-28T08:07:31.415Z,84.14
2022-12-28T08:08:34.916Z,83.60
2022-12-28T08:09:37.427Z,84.95
2022-12-28T08:10:38.960Z,84.79
2022-12-28T08:11:43.529Z,85.51
2022-12-28T08:12:45.090Z,85.25
2022-12-28T08:13:51.582Z,85.27
2022-12-28T08:14:53.112Z,85.45
2022-12-28T08:15:55.807Z,85.07
2022-12-28T08:16:57.310Z,85.45
2022-12-28T08:17:59.767Z,84.90
2022-12-28T08:19:01.753Z,85.19
2022-12-28T08:20:04.804Z,85.25
2022-12-28T08:21:08.018Z,85.60
2022-12-28T08:22:10.489Z,85.66
2022-12-28T08:23:12.015Z,85.70
2022-12-28T08:24:16.495Z,85.68
2022-12-28T08:25:18.998Z,85.17
2022-12-28T08:26:23.106Z,85.41
2022-12-28T08:27:25.582Z,84.91
2022-12-28T08:28:27.093Z,83.98
2022-12-28T08:29:30.975Z,83.95
2022-12-28T08:30:32.628Z,84.18
2022-12-28T08:31:37.465Z,84.30
2022-12-28T08:32:41.864Z,84.28
2022-12-28T08:33:44.717Z,83.95
2022-12-28T08:34:46.342Z,83.28
2022-12-28T08:35:48.781Z,82.50
2022-12-28T08:36:50.285Z,82.87
2022-12-28T08:37:55.631Z,83.23
2022-12-28T08:38:57.501Z,83.83
2022-12-28T08:40:00.433Z,83.80
2022-12-28T08:41:04.678Z,83.22
2022-12-28T08:42:07.436Z,83.36
2022-12-28T08:43:09.050Z,83.51
2022-12-28T08:44:11.503Z,83.06
2022-12-28T08:45:14.361Z,83.80
2022-12-28T08:46:19.302Z,84.18
2022-12-28T08:47:22.069Z,83.71
2022-12-28T08:48:23.549Z,82.74
2022-12-28T08:49:28.147Z,82.95
2022-12-28T08:50:32.024Z,83.75
2022-12-28T08:51:35.712Z,83.35
2022-12-28T08:52:38.174Z,83.02
2022-12-28T08:53:41.746Z,82.68
2022-12-28T08:54:43.320Z,81.51
2022-12-28T08:55:46.016Z,81.05
2022-12-28T08:56:49.958Z,81.64
2022-12-28T08:57:51.504Z,81.88
2022-12-28T08:58:54.490Z,82.03
2022-12-28T08:59:56.187Z,82.63
2022-12-28T09:01:06.344Z,82.00
2022-12-28T09:02:13.735Z,81.45
2022-12-28T09:03:15.497Z,81.06
2022-12-28T09:04:21.345Z,80.74
2022-12-28T09:05:23.036Z,81.74
2022-12-28T09:06:27.890Z,81.88
2022-12-28T09:07:30.594Z,80.87
2022-12-28T09:08:32.282Z,80.56
2022-12-28T09:09:35.808Z,80.42
2022-12-28T09:10:37.349Z,80.35
2022-12-28T09:11:40.571Z,79.56
2022-12-28T09:12:43.014Z,79.07
2022-12-28T09:13:44.676Z,80.17
2022-12-28T09:14:47.086Z,80.99
2022-12-28T09:15:56.563Z,80.65
2022-12-28T09:17:02.026Z,80.28
2022-12-28T09:18:03.857Z,79.58
2022-12-28T09:19:10.347Z,78.57
2022-12-28T09:20:11.823Z,79.55
2022-12-28T09:21:16.361Z,79.85
2022-12-28T09:22:18.853Z,80.13
2022-12-28T09:23:20.444Z,80.60
2022-12-28T09:24:23.816Z,81.31
2022-12-28T09:25:25.431Z,80.34
2022-12-28T09:26:31.077Z,80.00
2022-12-28T09:27:33.573Z,80.02
2022-12-28T09:28:35.123Z,79.67
2022-12-28T09:29:37.644Z,80.81
2022-12-28T09:30:40.119Z,80.46
2022-12-28T09:31:42.653Z,80.45
2022-12-28T09:33:06.585Z,80.55
2022-12-28T09:35:35.356Z,79.92
2022-12-28T09:36:38.857Z,79.38
2022-12-28T09:37:41.397Z,79.93
2022-12-28T09:38:43.367Z,81.23
2022-12-28T09:39:46.068Z,81.12
2022-12-28T09:40:47.592Z,80.60
2022-12-28T09:41:53.687Z,79.94
2022-12-28T09:42:55.590Z,79.69
2022-12-28T09:44:10.036Z,80.16
2022-12-28T09:45:13.648Z,80.06
2022-12-28T09:46:20.682Z,80.85
2022-12-28T09:47:31.668Z,80.47
2022-12-28T09:48:36.225Z,79.98
2022-12-28T09:49:45.059Z,80.62
2022-12-28T09:50:55.407Z,81.27
2022-12-28T09:52:05.437Z,82.00
2022-12-28T09:53:22.438Z,82.14
2022-12-28T09:54:25.163Z,80.82
2022-12-28T09:55:27.658Z,80.11
2022-12-28T09:56:35.797Z,80.58
2022-12-28T09:57:42.042Z,80.52
2022-12-28T09:58:48.038Z,80.38
2022-12-28T09:59:52.381Z,80.14
2022-12-28T10:00:57.570Z,79.25
2022-12-28T10:02:04.115Z,79.09
2022-12-28T10:03:12.679Z,79.54
2022-12-28T10:04:16.768Z,79.51
2022-12-28T10:05:21.132Z,79.88
2022-12-28T10:06:26.380Z,79.31
2022-12-28T10:07:28.037Z,78.48
2022-12-28T10:08:31.217Z,77.49
2022-12-28T10:09:34.981Z,77.69
2022-12-28T10:10:36.561Z,77.96
2022-12-28T10:11:41.950Z,77.66
2022-12-28T10:12:44.119Z,78.11
2022-12-28T10:13:55.369Z,76.93
2022-12-28T10:15:00.065Z,76.50
2022-12-28T10:16:04.282Z,77.15
2022-12-28T10:17:09.689Z,78.22
2022-12-28T10:18:13.361Z,78.92
2022-12-28T10:19:20.347Z,79.47
2022-12-28T10:20:22.773Z,78.60
2022-12-28T10:21:32.274Z,78.44
2022-12-28T10:22:41.513Z,77.84
2022-12-28T10:24:20.916Z,77.15
2022-12-28T10:25:17.080Z,77.63
2022-12-28T10:26:21.229Z,78.36
2022-12-28T10:27:24.512Z,77.80
2022-12-28T10:28:34.236Z,78.42
2022-12-28T10:29:36.710Z,78.19
2022-12-28T10:30:48.994Z,78.53
2022-12-28T10:32:01.443Z,78.54
2022-12-28T10:33:03.939Z,78.46
2022-12-28T10:34:15.588Z,78.44
2022-12-28T10:35:25.265Z,78.51
2022-12-28T10:36:33.990Z,77.84
2022-12-28T10:37:44.414Z,77.34
2022-12-28T10:38:52.991Z,79.04
2022-12-28T10:39:59.571Z,79.68
2022-12-28T10:41:03.782Z,79.96
2022-12-28T10:42:20.208Z,80.93
2022-12-28T10:43:22.975Z,80.70
2022-12-28T10:44:43.664Z,80.38
2022-12-28T10:45:50.214Z,79.65
2022-12-28T10:46:59.829Z,79.22
2022-12-28T10:48:07.461Z,79.61
2022-12-28T10:49:16.406Z,79.11
2022-12-28T10:50:55.112Z,78.27
2022-12-28T10:52:02.359Z,78.31
2022-12-28T10:53:04.992Z,78.36
2022-12-28T10:54:27.653Z,77.78
2022-12-28T10:55:32.050Z,77.86
2022-12-28T10:56:49.131Z,78.06
2022-12-28T10:58:27.542Z,79.24
2022-12-28T10:59:21.940Z,79.69
2022-12-28T11:00:26.054Z,79.71
2022-12-28T11:01:30.893Z,79.75
2022-12-28T11:02:32.877Z,79.89
2022-12-28T11:03:38.001Z,80.58
2022-12-28T11:04:52.313Z,80.54
2022-12-28T11:06:11.218Z,80.30
2022-12-28T11:07:28.929Z,79.98
2022-12-28T11:08:30.646Z,79.81
2022-12-28T11:09:35.351Z,79.96
2022-12-28T11:10:37.646Z,80.08
2022-12-28T11:11:40.630Z,80.15
2022-12-28T11:12:44.676Z,79.34
2022-12-28T11:13:52.311Z,79.10
2022-12-28T11:14:56.245Z,78.38
2022-12-28T11:15:58.219Z,77.88
2022-12-28T11:17:16.520Z,77.45
2022-12-28T11:18:18.989Z,77.46
2022-12-28T11:19:23.276Z,76.58
2022-12-28T11:20:29.445Z,75.82
2022-12-28T11:21:35.886Z,76.34
2022-12-28T11:22:37.704Z,76.90
2022-12-28T11:23:40.489Z,76.58
2022-12-28T11:24:43.257Z,76.18
2022-12-28T11:25:44.841Z,76.52
2022-12-28T11:26:50.093Z,75.86
2022-12-28T11:27:51.938Z,75.79
2022-12-28T11:28:55.495Z,75.68
2022-12-28T11:29:57.641Z,75.24
2022-12-28T11:31:00.420Z,75.29
2022-12-28T11:32:07.646Z,75.61
2022-12-28T11:33:26.788Z,74.62
2022-12-28T11:34:32.228Z,74.51
2022-12-28T11:35:37.983Z,74.82
2022-12-28T11:36:42.283Z,74.64
2022-12-28T11:37:49.219Z,74.76
2022-12-28T11:38:53.131Z,74.36
2022-12-28T11:39:55.620Z,73.71
2022-12-28T11:40:59.349Z,73.53
2022-12-28T11:42:37.249Z,73.03
2022-12-28T11:43:40.636Z,72.90
2022-12-28T11:44:51.641Z,70.32
2022-12-28T11:45:55.185Z,68.85
2022-12-28T11:47:02.566Z,68.63
2022-12-28T11:48:38.397Z,66.67
2022-12-28T11:49:40.910Z,66.36
2022-12-28T11:50:52.056Z,66.64
2022-12-28T11:52:48.301Z,66.51
2022-12-28T11:53:53.980Z,65.61
2022-12-28T11:54:57.670Z,63.87
2022-12-28T11:56:05.609Z,64.13
2022-12-28T11:57:11.078Z,65.91
2022-12-28T11:58:53.503Z,66.52
2022-12-28T12:00:42.457Z,67.17
2022-12-28T12:01:47.446Z,64.39
2022-12-28T12:02:51.884Z,64.27
2022-12-28T12:04:19.771Z,66.69
2022-12-28T12:05:50.084Z,68.01
2022-12-28T12:07:24.718Z,68.43
2022-12-28T12:08:48.734Z,69.90
2022-12-28T12:10:16.874Z,70.27
2022-12-28T12:11:33.121Z,70.45
2022-12-28T12:12:37.853Z,72.63
2022-12-28T12:13:45.418Z,73.09
2022-12-28T12:14:49.453Z,72.49
2022-12-28T12:15:54.231Z,73.12
2022-12-28T12:17:03.450Z,72.71
2022-12-28T12:18:08.665Z,72.55
2022-12-28T12:19:23.226Z,72.54
2022-12-28T12:20:43.789Z,71.81
2022-12-28T12:21:55.832Z,73.15
2022-12-28T12:23:02.053Z,73.45
2022-12-28T12:24:18.562Z,74.39
2022-12-28T12:25:25.421Z,73.10
2022-12-28T12:26:38.000Z,71.08
2022-12-28T12:27:44.377Z,70.07
2022-12-28T12:28:49.320Z,70.40
2022-12-28T12:29:58.230Z,70.27
2022-12-28T12:31:02.096Z,70.25
2022-12-28T12:32:11.901Z,68.98
2022-12-28T12:33:18.479Z,69.41
2022-12-28T12:34:25.087Z,67.82
2022-12-28T12:35:29.567Z,66.75
2022-12-28T12:36:59.008Z,63.92
2022-12-28T12:38:11.985Z,65.23
2022-12-28T12:39:30.685Z,62.54
2022-12-28T12:41:00.686Z,61.16
2022-12-28T12:42:14.363Z,61.24
2022-12-28T12:43:29.964Z,60.71
2022-12-28T12:44:41.320Z,58.75
2022-12-28T12:45:54.046Z,58.08
2022-12-28T12:47:21.539Z,59.60
2022-12-28T12:48:38.267Z,55.62
2022-12-28T12:49:54.515Z,56.37
2022-12-28T12:51:11.772Z,58.93
2022-12-28T12:52:24.982Z,57.73
2022-12-28T12:53:48.191Z,56.29
2022-12-28T12:55:08.279Z,55.12
2022-12-28T12:56:21.397Z,57.28
2022-12-28T12:57:31.101Z,58.65
2022-12-28T12:58:48.033Z,61.50
2022-12-28T13:00:02.705Z,60.60
2022-12-28T13:01:19.011Z,62.53
2022-12-28T13:02:47.991Z,64.75
2022-12-28T13:03:51.680Z,65.77
2022-12-28T13:04:54.418Z,66.96
2022-12-28T13:05:59.307Z,67.43
2022-12-28T13:07:05.013Z,68.38
2022-12-28T13:08:06.674Z,69.63
2022-12-28T13:09:16.751Z,68.92
2022-12-28T13:10:25.177Z,69.58
2022-12-28T13:11:29.801Z,71.61
2022-12-28T13:12:32.411Z,71.96
2022-12-28T13:13:38.397Z,71.07
2022-12-28T13:14:45.185Z,70.25
2022-12-28T13:15:48.019Z,69.81
2022-12-28T13:16:52.959Z,70.22
2022-12-28T13:18:42.886Z,70.04
2022-12-28T13:19:27.144Z,70.58
2022-12-28T13:20:29.007Z,72.06
2022-12-28T13:21:41.512Z,73.10
2022-12-28T13:22:46.526Z,72.20
2022-12-28T13:23:51.047Z,73.02
2022-12-28T13:24:52.603Z,73.29
2022-12-28T13:25:59.337Z,73.43
2022-12-28T13:27:07.672Z,72.70
2022-12-28T13:28:21.572Z,72.40
2022-12-28T13:29:26.247Z,72.35
2022-12-28T13:30:29.735Z,73.07
2022-12-28T13:31:37.189Z,72.92
2022-12-28T13:32:50.396Z,72.21
2022-12-28T13:33:57.546Z,72.53
2022-12-28T13:34:59.959Z,73.05
2022-12-28T13:36:10.768Z,73.11
2022-12-28T13:37:15.071Z,72.79
2022-12-28T13:38:18.759Z,73.44
2022-12-28T13:39:22.313Z,72.55
2022-12-28T13:40:24.016Z,73.04
2022-12-28T13:41:28.368Z,73.09
2022-12-28T13:42:38.020Z,73.50
2022-12-28T13:44:23.288Z,74.52
2022-12-28T13:45:26.283Z,73.43
2022-12-28T13:46:29.305Z,73.53
2022-12-28T13:47:37.239Z,73.63
2022-12-28T13:48:43.088Z,72.77
2022-12-28T13:49:52.744Z,72.96
2022-12-28T13:50:55.386Z,72.94
2022-12-28T13:51:57.988Z,72.82
2022-12-28T13:53:04.011Z,73.42
2022-12-28T13:54:07.189Z,73.09
2022-12-28T13:55:14.170Z,73.92
2022-12-28T13:56:18.433Z,73.65
2022-12-28T13:58:50.858Z,72.84
2022-12-28T13:59:55.963Z,71.92
2022-12-28T14:01:00.794Z,71.33
2022-12-28T14:02:05.135Z,71.18
2022-12-28T14:03:11.989Z,70.66
2022-12-28T14:05:45.480Z,72.31
2022-12-28T14:06:48.337Z,72.45
2022-12-28T14:07:52.872Z,72.37
2022-12-28T14:08:54.526Z,72.73
2022-12-28T14:09:58.184Z,73.36
2022-12-28T14:11:00.387Z,73.55
2022-12-28T14:12:03.133Z,73.72
2022-12-28T14:13:08.496Z,73.68
2022-12-28T14:14:11.244Z,73.04
2022-12-28T14:15:14.450Z,72.62
2022-12-28T14:16:16.344Z,72.44
2022-12-28T14:17:20.991Z,72.72
2022-12-28T14:18:23.744Z,72.71
2022-12-28T14:19:26.256Z,73.31